createdAt,value
2023-03-26T00:00:28.898Z,6.20
2023-03-26T00:01:28.881Z,4.70
2023-03-26T00:02:28.916Z,5.50
2023-03-26T00:03:28.819Z,4.20
2023-03-26T00:04:28.827Z,4.50
2023-03-26T00:05:28.891Z,8.10
2023-03-26T00:06:28.871Z,4.80
2023-03-26T00:07:28.837Z,4.80
2023-03-26T00:08:28.780Z,3.70
2023-03-26T00:09:28.826Z,6.30
2023-03-26T00:10:28.862Z,3.60
2023-03-26T00:11:28.803Z,5.70
2023-03-26T00:12:28.751Z,8.50
2023-03-26T00:13:28.718Z,6.20
2023-03-26T00:14:28.804Z,6.00
2023-03-26T00:15:28.769Z,4.40
2023-03-26T00:16:28.820Z,4.80
2023-03-26T00:17:28.790Z,3.80
2023-03-26T00:18:29.421Z,5.60
2023-03-26T00:19:28.753Z,4.90
2023-03-26T00:20:28.672Z,7.10
2023-03-26T00:21:28.738Z,5.00
2023-03-26T00:22:28.722Z,6.20
2023-03-26T00:23:28.681Z,4.80
2023-03-26T00:24:28.685Z,8.20
2023-03-26T00:25:28.744Z,8.90
2023-03-26T00:26:28.650Z,3.80
2023-03-26T00:27:28.612Z,7.00
2023-03-26T00:28:28.651Z,6.40
2023-03-26T00:29:28.615Z,4.30
2023-03-26T00:30:28.682Z,4.20
2023-03-26T00:31:28.616Z,5.50
2023-03-26T00:32:28.625Z,5.50
2023-03-26T00:33:28.598Z,4.40
2023-03-26T00:34:28.653Z,7.10
2023-03-26T00:35:28.590Z,3.90
2023-03-26T00:36:28.609Z,11.00
2023-03-26T00:37:28.570Z,5.20
2023-03-26T00:38:28.593Z,7.00
2023-03-26T00:39:28.612Z,6.70
2023-03-26T00:40:28.557Z,5.60
2023-03-26T00:41:28.603Z,4.60
2023-03-26T00:42:28.514Z,8.50
2023-03-26T00:43:28.545Z,6.40
2023-03-26T00:44:28.578Z,6.20
2023-03-26T00:45:28.538Z,8.60
2023-03-26T00:46:28.524Z,5.60
2023-03-26T00:47:28.547Z,5.40
2023-03-26T00:48:38.285Z,6.50
2023-03-26T00:49:30.477Z,5.80
2023-03-26T00:50:28.475Z,5.40
2023-03-26T00:51:28.539Z,6.10
2023-03-26T00:52:28.425Z,5.30
2023-03-26T00:53:28.427Z,8.20
2023-03-26T00:54:28.488Z,8.50
2023-03-26T00:55:28.466Z,8.20
2023-03-26T00:56:28.426Z,9.80
2023-03-26T00:57:35.414Z,5.70
2023-03-26T00:58:30.380Z,6.90
2023-03-26T00:59:28.399Z,5.60
2023-03-26T01:00:28.379Z,4.30
2023-03-26T01:01:29.177Z,7.40
2023-03-26T01:02:28.391Z,5.10
2023-03-26T01:03:28.457Z,10.30
2023-03-26T01:04:29.956Z,7.70
2023-03-26T01:05:28.333Z,7.50
2023-03-26T01:06:28.423Z,6.40
2023-03-26T01:07:28.339Z,9.80
2023-03-26T01:08:28.311Z,8.60
2023-03-26T01:09:28.317Z,8.90
2023-03-26T01:10:28.298Z,8.60
2023-03-26T01:11:28.305Z,6.70
2023-03-26T01:12:28.336Z,6.50
2023-03-26T01:13:29.270Z,6.60
2023-03-26T01:14:28.253Z,4.10
2023-03-26T01:15:28.300Z,9.40
2023-03-26T01:16:28.259Z,7.20
2023-03-26T01:17:28.314Z,5.30
2023-03-26T01:18:28.245Z,6.90
2023-03-26T01:19:28.213Z,7.00
2023-03-26T01:20:28.247Z,6.10
2023-03-26T01:21:28.213Z,10.80
2023-03-26T01:22:28.303Z,9.80
2023-03-26T01:23:28.231Z,7.90
2023-03-26T01:24:29.218Z,8.10
2023-03-26T01:25:28.246Z,8.80
2023-03-26T01:26:28.158Z,9.00
2023-03-26T01:27:28.153Z,7.10
2023-03-26T01:28:28.177Z,12.00
2023-03-26T01:29:28.156Z,7.10
2023-03-26T01:30:28.146Z,7.40
2023-03-26T01:31:28.097Z,8.40
2023-03-26T01:32:28.223Z,6.80
2023-03-26T01:33:28.209Z,11.20
2023-03-26T01:34:28.118Z,7.10
2023-03-26T01:35:28.103Z,7.30
2023-03-26T01:36:28.066Z,6.40
2023-03-26T01:37:28.086Z,9.80
2023-03-26T01:38:28.049Z,6.70
2023-03-26T01:39:28.047Z,11.20
2023-03-26T01:40:28.031Z,5.50
2023-03-26T01:41:28.050Z,6.70
2023-03-26T01:42:28.042Z,7.80
2023-03-26T01:43:29.028Z,9.50
2023-03-26T01:44:28.007Z,6.30
2023-03-26T01:45:28.001Z,12.30
2023-03-26T01:46:28.058Z,7.00
2023-03-26T01:47:28.010Z,12.60
2023-03-26T01:48:28.010Z,10.10
2023-03-26T01:49:27.992Z,8.10
2023-03-26T01:50:27.986Z,9.60
2023-03-26T01:51:27.952Z,7.20
2023-03-26T01:52:27.971Z,10.70
2023-03-26T01:53:28.908Z,10.80
2023-03-26T01:54:27.950Z,6.90
2023-03-26T01:55:27.916Z,10.80
2023-03-26T01:56:27.951Z,8.50
2023-03-26T01:57:27.944Z,13.30
2023-03-26T01:58:27.923Z,9.80
2023-03-26T01:59:27.921Z,10.60
2023-03-26T02:00:27.923Z,11.90
2023-03-26T02:01:27.969Z,14.50
2023-03-26T02:02:28.075Z,9.70
2023-03-26T02:03:27.990Z,9.90
2023-03-26T02:04:27.889Z,11.90
2023-03-26T02:05:27.896Z,8.80
2023-03-26T02:06:27.916Z,11.40
2023-03-26T02:07:27.854Z,8.10
2023-03-26T02:08:27.846Z,13.60
2023-03-26T02:09:27.820Z,10.10
2023-03-26T02:10:27.812Z,13.80
2023-03-26T02:11:35.529Z,11.10
2023-03-26T02:12:29.859Z,12.80
2023-03-26T02:13:27.817Z,10.40
2023-03-26T02:14:27.822Z,11.00
2023-03-26T02:15:27.776Z,9.90
2023-03-26T02:16:27.831Z,16.80
2023-03-26T02:17:27.810Z,9.60
2023-03-26T02:18:27.742Z,14.80
2023-03-26T02:19:27.758Z,16.90
2023-03-26T02:20:27.720Z,10.60
2023-03-26T02:21:27.734Z,12.90
2023-03-26T02:22:27.923Z,12.90
2023-03-26T02:23:27.739Z,8.90
2023-03-26T02:24:27.751Z,12.90
2023-03-26T02:25:27.710Z,11.90
2023-03-26T02:26:27.696Z,12.40
2023-03-26T02:27:27.960Z,13.80
2023-03-26T02:28:27.669Z,12.80
2023-03-26T02:29:27.695Z,16.00
2023-03-26T02:30:27.672Z,11.40
2023-03-26T02:31:27.685Z,12.20
2023-03-26T02:32:29.283Z,12.50
2023-03-26T02:33:28.611Z,12.90
2023-03-26T02:34:27.633Z,11.20
2023-03-26T02:35:27.684Z,11.60
2023-03-26T02:36:27.808Z,11.90
2023-03-26T02:37:28.578Z,15.90
2023-03-26T02:38:27.638Z,14.70
2023-03-26T02:39:27.686Z,11.70
2023-03-26T02:40:27.558Z,12.50
2023-03-26T02:41:27.571Z,14.20
2023-03-26T02:42:27.560Z,13.40
2023-03-26T02:43:27.710Z,18.50
2023-03-26T02:44:27.561Z,16.80
2023-03-26T02:45:27.533Z,15.50
2023-03-26T02:46:27.586Z,14.70
2023-03-26T02:47:27.786Z,16.30
2023-03-26T02:48:27.637Z,14.10
2023-03-26T02:49:27.565Z,13.30
2023-03-26T02:50:27.493Z,17.90
2023-03-26T02:51:27.486Z,20.70
2023-03-26T02:52:27.479Z,16.90
2023-03-26T02:53:27.462Z,15.10
2023-03-26T02:54:27.486Z,16.90
2023-03-26T02:55:27.484Z,18.40
2023-03-26T02:56:27.482Z,14.20
2023-03-26T02:57:27.443Z,17.60
2023-03-26T02:58:27.443Z,15.00
2023-03-26T02:59:27.444Z,19.80
2023-03-26T03:00:27.418Z,13.50
2023-03-26T03:01:27.438Z,17.10
2023-03-26T03:02:27.515Z,16.00
2023-03-26T03:03:27.429Z,13.70
2023-03-26T03:04:27.451Z,18.50
2023-03-26T03:05:27.372Z,17.90
2023-03-26T03:06:27.404Z,17.90
2023-03-26T03:07:27.430Z,18.30
2023-03-26T03:08:27.380Z,19.80
2023-03-26T03:09:27.335Z,13.90
2023-03-26T03:10:27.342Z,17.60
2023-03-26T03:11:27.332Z,14.10
2023-03-26T03:12:27.395Z,19.00
2023-03-26T03:13:27.345Z,14.30
2023-03-26T03:14:27.333Z,12.10
2023-03-26T03:15:27.324Z,18.00
2023-03-26T03:16:27.354Z,16.70
2023-03-26T03:17:27.286Z,15.10
2023-03-26T03:18:27.316Z,16.90
2023-03-26T03:19:27.277Z,16.70
2023-03-26T03:20:27.265Z,16.10
2023-03-26T03:21:27.237Z,13.90
2023-03-26T03:22:27.231Z,11.40
2023-03-26T03:23:27.263Z,19.00
2023-03-26T03:24:27.237Z,21.30
2023-03-26T03:25:27.215Z,17.10
2023-03-26T03:26:27.237Z,18.70
2023-03-26T03:27:27.223Z,15.30
2023-03-26T03:28:27.252Z,16.40
2023-03-26T03:29:27.200Z,18.10
2023-03-26T03:30:27.186Z,18.00
2023-03-26T03:31:27.209Z,19.70
2023-03-26T03:32:27.248Z,19.10
2023-03-26T03:33:27.263Z,18.90
2023-03-26T03:34:27.173Z,16.50
2023-03-26T03:35:27.178Z,14.80
2023-03-26T03:36:27.145Z,18.00
2023-03-26T03:37:27.123Z,17.30
2023-03-26T03:38:27.102Z,13.50
2023-03-26T03:39:28.171Z,14.20
2023-03-26T03:40:27.113Z,14.80
2023-03-26T03:41:28.119Z,18.30
2023-03-26T03:42:27.112Z,16.20
2023-03-26T03:43:27.120Z,17.00
2023-03-26T03:44:27.084Z,15.40
2023-03-26T03:45:27.099Z,18.20
2023-03-26T03:46:27.105Z,17.30
2023-03-26T04:02:38.164Z,14.00
2023-03-26T04:03:38.275Z,16.00
2023-03-26T04:04:38.136Z,15.50
2023-03-26T04:05:39.239Z,21.50
2023-03-26T04:06:39.245Z,13.50
2023-03-26T04:07:39.206Z,19.90
2023-03-26T04:08:39.205Z,16.90
2023-03-26T04:09:39.166Z,17.20
2023-03-26T04:10:39.175Z,18.00
2023-03-26T04:11:39.180Z,17.30
2023-03-26T04:12:39.157Z,17.50
2023-03-26T04:13:39.149Z,21.50
2023-03-26T04:14:39.148Z,16.60
2023-03-26T04:15:39.174Z,17.20
2023-03-26T04:16:39.135Z,20.40
2023-03-26T04:17:39.247Z,17.60
2023-03-26T04:18:39.124Z,20.30
2023-03-26T04:19:39.123Z,15.50
2023-03-26T04:20:39.093Z,24.60
2023-03-26T04:21:39.080Z,16.70
2023-03-26T04:22:39.091Z,16.10
2023-03-26T04:23:39.101Z,17.50
2023-03-26T04:24:39.065Z,16.60
2023-03-26T04:25:39.086Z,17.90
2023-03-26T04:26:39.090Z,20.80
2023-03-26T04:27:39.034Z,18.20
2023-03-26T04:28:39.055Z,20.30
2023-03-26T04:29:39.016Z,19.40
2023-03-26T04:30:39.036Z,17.80
2023-03-26T04:31:39.029Z,20.50
2023-03-26T04:32:39.030Z,20.00
2023-03-26T04:33:39.002Z,17.90
2023-03-26T04:34:39.011Z,21.80
2023-03-26T04:35:38.997Z,19.30
2023-03-26T04:36:38.975Z,17.70
2023-03-26T04:37:38.986Z,19.50
2023-03-26T04:38:38.980Z,18.30
2023-03-26T04:39:38.979Z,21.30
2023-03-26T04:40:38.967Z,15.50
2023-03-26T04:41:38.947Z,19.10
2023-03-26T04:42:38.939Z,20.20
2023-03-26T04:43:38.943Z,19.10
2023-03-26T04:44:38.933Z,17.50
2023-03-26T04:45:38.904Z,22.90
2023-03-26T04:46:38.930Z,19.70
2023-03-26T04:47:38.893Z,22.80
2023-03-26T04:48:38.899Z,18.30
2023-03-26T04:49:38.898Z,30.40
2023-03-26T04:50:38.870Z,20.10
2023-03-26T04:51:38.893Z,19.70
2023-03-26T04:52:39.845Z,19.90
2023-03-26T04:53:38.857Z,19.60
2023-03-26T04:54:39.787Z,21.00
2023-03-26T04:55:38.837Z,21.10
2023-03-26T04:56:39.900Z,20.60
2023-03-26T04:57:38.841Z,20.40
2023-03-26T04:58:38.807Z,19.60
2023-03-26T04:59:38.795Z,22.60
2023-03-26T05:00:38.798Z,16.80
2023-03-26T05:01:38.818Z,20.30
2023-03-26T05:02:38.790Z,23.30
2023-03-26T05:03:38.767Z,19.00
2023-03-26T05:04:38.799Z,17.50
2023-03-26T05:05:39.283Z,25.60
2023-03-26T05:06:38.767Z,23.60
2023-03-26T05:07:38.721Z,24.20
2023-03-26T05:08:38.738Z,24.10
2023-03-26T05:09:38.701Z,18.90
2023-03-26T05:10:38.712Z,27.30
2023-03-26T05:11:39.313Z,20.60
2023-03-26T05:12:38.695Z,21.00
2023-03-26T05:13:38.731Z,19.60
2023-03-26T05:14:38.682Z,21.00
2023-03-26T05:15:38.721Z,30.10
2023-03-26T05:16:38.695Z,22.70
2023-03-26T05:17:38.676Z,24.30
2023-03-26T05:18:39.629Z,18.80
2023-03-26T05:19:38.640Z,21.60
2023-03-26T05:20:38.629Z,18.80
2023-03-26T05:21:38.613Z,23.30
2023-03-26T05:22:38.619Z,21.20
2023-03-26T05:23:38.607Z,22.00
2023-03-26T05:24:38.596Z,22.20
2023-03-26T05:25:38.598Z,22.70
2023-03-26T05:26:38.580Z,22.60
2023-03-26T05:27:38.584Z,23.00
2023-03-26T05:28:38.570Z,19.30
2023-03-26T05:29:38.563Z,24.70
2023-03-26T05:30:38.554Z,20.20
2023-03-26T05:31:38.560Z,19.40
2023-03-26T05:32:38.632Z,18.20
2023-03-26T05:33:38.617Z,22.30
2023-03-26T05:34:38.518Z,21.10
2023-03-26T05:35:38.558Z,19.80
2023-03-26T05:36:38.530Z,25.10
2023-03-26T05:37:38.542Z,18.70
2023-03-26T05:38:38.539Z,18.90
2023-03-26T05:39:38.517Z,20.00
2023-03-26T05:40:39.297Z,22.50
2023-03-26T05:41:38.483Z,20.00
2023-03-26T05:42:38.468Z,23.80
2023-03-26T05:43:38.488Z,19.10
2023-03-26T05:44:38.457Z,21.40
2023-03-26T05:45:38.436Z,23.20
2023-03-26T05:46:38.422Z,17.80
2023-03-26T05:47:38.469Z,15.70
2023-03-26T05:48:38.415Z,19.40
2023-03-26T05:49:38.441Z,15.80
2023-03-26T05:50:38.386Z,20.80
2023-03-26T05:51:38.387Z,22.30
2023-03-26T05:52:38.373Z,22.80
2023-03-26T05:53:38.401Z,22.00
2023-03-26T05:54:38.400Z,25.40
2023-03-26T05:55:38.365Z,19.10
2023-03-26T05:56:38.409Z,20.80
2023-03-26T05:57:38.359Z,14.10
2023-03-26T05:58:38.356Z,16.70
2023-03-26T05:59:38.342Z,16.80
2023-03-26T06:00:38.348Z,10.70
2023-03-26T06:01:38.311Z,17.10
2023-03-26T06:02:38.338Z,14.40
2023-03-26T06:03:38.637Z,14.10
2023-03-26T06:04:38.411Z,12.80
2023-03-26T06:05:39.321Z,16.70
2023-03-26T06:06:38.342Z,11.50
2023-03-26T06:07:38.261Z,11.90
2023-03-26T06:08:38.272Z,13.10
2023-03-26T06:09:38.262Z,13.20
2023-03-26T06:10:38.305Z,11.40
2023-03-26T06:11:38.239Z,12.00
2023-03-26T06:12:38.254Z,13.00
2023-03-26T06:13:41.039Z,10.90
2023-03-26T06:14:38.204Z,11.00
2023-03-26T06:15:38.250Z,14.50
2023-03-26T06:16:38.210Z,13.20
2023-03-26T06:17:38.842Z,13.30
2023-03-26T06:18:38.228Z,15.10
2023-03-26T06:19:38.176Z,11.50
2023-03-26T06:20:38.199Z,15.70
2023-03-26T06:21:38.159Z,11.60
2023-03-26T06:22:38.177Z,16.50
2023-03-26T06:23:38.152Z,11.70
2023-03-26T06:24:38.126Z,12.10
2023-03-26T06:25:38.193Z,11.10
2023-03-26T06:26:38.144Z,13.10
2023-03-26T06:27:38.137Z,13.30
2023-03-26T06:28:38.111Z,18.30
2023-03-26T06:29:38.093Z,17.80
2023-03-26T06:30:38.118Z,13.60
2023-03-26T06:31:38.174Z,11.20
2023-03-26T06:32:38.153Z,11.90
2023-03-26T06:33:38.137Z,11.00
2023-03-26T06:34:38.068Z,12.70
2023-03-26T06:35:38.086Z,15.40
2023-03-26T06:36:38.070Z,13.50
2023-03-26T06:37:38.052Z,15.80
2023-03-26T06:38:38.056Z,16.80
2023-03-26T06:39:38.019Z,11.20
2023-03-26T06:40:38.030Z,12.40
2023-03-26T06:41:38.007Z,14.00
2023-03-26T06:43:08.108Z,13.90
2023-03-26T06:43:39.026Z,13.90
2023-03-26T06:44:38.008Z,18.00
2023-03-26T06:45:37.999Z,10.70
2023-03-26T06:46:38.037Z,16.50
2023-03-26T06:47:38.006Z,13.60
2023-03-26T06:48:38.018Z,12.90
2023-03-26T06:49:38.085Z,16.00
2023-03-26T06:50:37.937Z,16.20
2023-03-26T06:51:37.940Z,12.60
2023-03-26T06:52:37.938Z,13.70
2023-03-26T06:53:37.963Z,18.20
2023-03-26T06:54:37.967Z,13.30
2023-03-26T06:55:37.904Z,14.80
2023-03-26T06:56:37.901Z,12.90
2023-03-26T06:57:37.885Z,11.40
2023-03-26T06:58:37.895Z,12.60
2023-03-26T06:59:37.919Z,15.10
2023-03-26T07:00:37.982Z,11.30
2023-03-26T07:01:37.903Z,14.70
2023-03-26T07:02:37.873Z,13.20
2023-03-26T07:03:37.907Z,11.80
2023-03-26T07:04:38.060Z,16.00
2023-03-26T07:05:37.878Z,14.20
2023-03-26T07:06:37.858Z,15.60
2023-03-26T07:07:46.001Z,14.70
2023-03-26T07:08:38.936Z,18.70
2023-03-26T07:09:37.847Z,16.50
2023-03-26T07:10:37.798Z,16.30
2023-03-26T07:11:37.801Z,15.20
2023-03-26T07:12:37.832Z,16.00
2023-03-26T07:13:38.814Z,14.20
2023-03-26T07:14:37.829Z,16.70
2023-03-26T07:15:37.838Z,18.90
2023-03-26T07:16:38.045Z,12.40
2023-03-26T07:17:37.796Z,14.30
2023-03-26T07:18:39.665Z,17.20
2023-03-26T07:19:37.764Z,17.40
2023-03-26T07:20:37.747Z,12.70
2023-03-26T07:21:37.707Z,23.40
2023-03-26T07:22:37.850Z,15.10
2023-03-26T07:23:37.736Z,18.30
2023-03-26T07:24:37.733Z,12.40
2023-03-26T07:25:37.713Z,18.80
2023-03-26T07:26:37.714Z,15.00
2023-03-26T07:27:37.695Z,14.00
2023-03-26T07:28:37.697Z,20.90
2023-03-26T07:29:37.652Z,34.60
2023-03-26T07:30:37.672Z,33.00
2023-03-26T07:31:37.780Z,23.80
2023-03-26T07:32:37.665Z,24.30
2023-03-26T07:33:37.672Z,19.30
2023-03-26T07:34:37.634Z,17.90
2023-03-26T07:35:37.678Z,13.00
2023-03-26T07:36:37.607Z,15.50
2023-03-26T07:37:37.617Z,18.90
2023-03-26T07:38:37.579Z,13.40
2023-03-26T07:39:37.566Z,16.40
2023-03-26T07:40:37.557Z,16.90
2023-03-26T07:41:37.592Z,21.40
2023-03-26T07:42:37.583Z,19.50
2023-03-26T07:43:37.579Z,17.10
2023-03-26T07:44:37.550Z,17.80
2023-03-26T07:45:37.546Z,24.00
2023-03-26T07:46:37.532Z,16.90
2023-03-26T07:47:37.567Z,19.10
2023-03-26T07:48:37.587Z,19.40
2023-03-26T07:49:37.496Z,18.10
2023-03-26T07:50:37.478Z,12.00
2023-03-26T07:51:37.483Z,20.00
2023-03-26T07:52:37.535Z,16.90
2023-03-26T07:53:37.480Z,16.60
2023-03-26T07:54:37.449Z,20.90
2023-03-26T07:55:37.466Z,20.00
2023-03-26T07:56:37.509Z,19.50
2023-03-26T07:57:37.534Z,20.00
2023-03-26T07:58:37.423Z,16.30
2023-03-26T07:59:37.440Z,19.90
2023-03-26T08:00:37.405Z,17.40
2023-03-26T08:01:37.392Z,19.60
2023-03-26T08:02:37.417Z,20.70
2023-03-26T08:03:37.626Z,18.00
2023-03-26T08:04:37.472Z,16.80
2023-03-26T08:05:37.347Z,15.20
2023-03-26T08:06:37.350Z,19.40
2023-03-26T08:07:37.349Z,19.30
2023-03-26T08:08:37.342Z,16.60
2023-03-26T08:09:37.362Z,22.10
2023-03-26T08:10:37.360Z,17.30
2023-03-26T08:11:37.312Z,22.50
2023-03-26T08:12:37.323Z,18.40
2023-03-26T08:13:37.324Z,17.40
2023-03-26T08:14:37.342Z,20.00
2023-03-26T08:15:37.391Z,17.20
2023-03-26T08:16:37.262Z,18.20
2023-03-26T08:17:37.301Z,20.00
2023-03-26T08:18:37.254Z,23.60
2023-03-26T08:19:37.261Z,20.50
2023-03-26T08:20:37.277Z,17.80
2023-03-26T08:21:37.293Z,17.90
2023-03-26T08:22:37.226Z,21.50
2023-03-26T08:23:37.209Z,19.30
2023-03-26T08:24:38.229Z,14.80
2023-03-26T08:25:38.210Z,18.10
2023-03-26T08:26:38.245Z,16.90
2023-03-26T08:27:37.214Z,18.30
2023-03-26T08:28:37.190Z,17.30
2023-03-26T08:29:37.163Z,17.70
2023-03-26T08:30:37.164Z,18.20
2023-03-26T08:31:37.220Z,18.30
2023-03-26T08:32:37.170Z,15.20
2023-03-26T08:33:38.583Z,17.30
2023-03-26T08:34:37.126Z,15.40
2023-03-26T08:35:37.234Z,21.70
2023-03-26T08:36:37.112Z,14.90
2023-03-26T08:37:37.151Z,17.10
2023-03-26T08:38:37.113Z,18.10
2023-03-26T08:39:37.102Z,17.80
2023-03-26T08:40:37.094Z,17.90
2023-03-26T08:41:37.172Z,21.40
2023-03-26T08:42:37.088Z,16.10
2023-03-26T08:43:37.089Z,16.90
2023-03-26T08:44:37.094Z,15.90
2023-03-26T08:45:37.213Z,20.40
2023-03-26T08:46:37.107Z,18.20
2023-03-26T08:47:37.115Z,16.20
2023-03-26T08:48:37.110Z,19.40
2023-03-26T08:49:37.033Z,16.80
2023-03-26T08:50:37.063Z,20.60
2023-03-26T08:51:37.007Z,19.30
2023-03-26T08:52:37.098Z,17.30
2023-03-26T08:53:37.069Z,15.10
2023-03-26T08:54:37.019Z,14.80
2023-03-26T08:55:38.005Z,18.90
2023-03-26T08:56:37.022Z,17.80
2023-03-26T08:57:36.989Z,16.10
2023-03-26T08:58:37.022Z,18.50
2023-03-26T08:59:36.972Z,20.20
2023-03-26T09:00:36.937Z,21.90
2023-03-26T09:01:36.979Z,18.00
2023-03-26T09:02:36.926Z,21.30
2023-03-26T09:03:36.967Z,18.30
2023-03-26T09:04:36.967Z,18.70
2023-03-26T09:05:36.968Z,19.10
2023-03-26T09:06:37.744Z,18.50
2023-03-26T09:07:36.892Z,17.00
2023-03-26T09:08:36.875Z,19.20
2023-03-26T09:09:36.965Z,20.60
2023-03-26T09:10:36.897Z,16.80
2023-03-26T09:11:36.848Z,19.30
2023-03-26T09:12:36.871Z,20.60
2023-03-26T09:13:36.851Z,19.40
2023-03-26T09:14:36.849Z,22.00
2023-03-26T09:15:36.859Z,18.60
2023-03-26T09:16:36.856Z,23.00
2023-03-26T09:17:37.843Z,20.70
2023-03-26T09:18:36.842Z,24.90
2023-03-26T09:19:36.791Z,22.10
2023-03-26T09:20:36.768Z,23.50
2023-03-26T09:21:36.835Z,22.20
2023-03-26T09:22:36.771Z,18.60
2023-03-26T09:23:36.753Z,25.00
2023-03-26T09:24:36.759Z,18.80
2023-03-26T09:25:36.868Z,21.50
2023-03-26T09:26:36.789Z,20.40
2023-03-26T09:27:36.715Z,22.20
2023-03-26T09:28:36.727Z,21.30
2023-03-26T09:29:36.733Z,18.40
2023-03-26T09:30:36.726Z,19.20
2023-03-26T09:32:08.672Z,19.00
2023-03-26T09:32:36.729Z,18.30
2023-03-26T09:33:36.733Z,18.20
2023-03-26T09:34:36.675Z,21.90
2023-03-26T09:35:36.705Z,19.80
2023-03-26T09:36:36.647Z,20.90
2023-03-26T09:37:56.391Z,18.30
2023-03-26T09:38:37.623Z,18.70
2023-03-26T09:39:36.644Z,20.90
2023-03-26T09:40:36.681Z,21.60
2023-03-26T09:41:36.645Z,21.90
2023-03-26T09:42:36.644Z,25.90
2023-03-26T09:43:36.620Z,20.90
2023-03-26T09:44:36.624Z,16.30
2023-03-26T09:45:36.678Z,22.70
2023-03-26T09:46:36.553Z,17.70
2023-03-26T09:47:36.616Z,17.70
2023-03-26T09:48:37.315Z,17.50
2023-03-26T09:49:36.547Z,19.20
2023-03-26T09:50:37.427Z,20.00
2023-03-26T09:51:36.539Z,19.60
2023-03-26T09:52:36.586Z,17.50
2023-03-26T09:53:36.527Z,21.40
2023-03-26T09:54:36.582Z,19.50
2023-03-26T09:55:36.531Z,21.50
2023-03-26T09:56:38.374Z,25.00
2023-03-26T09:57:36.512Z,19.10
2023-03-26T09:58:36.569Z,20.70
2023-03-26T09:59:36.618Z,23.20
2023-03-26T10:00:36.517Z,20.30
2023-03-26T10:01:36.512Z,19.70
2023-03-26T10:02:45.587Z,21.50
2023-03-26T10:03:37.445Z,17.00
2023-03-26T10:04:36.528Z,20.30
2023-03-26T10:05:36.539Z,26.10
2023-03-26T10:06:36.480Z,21.20
2023-03-26T10:07:36.451Z,15.50
2023-03-26T10:08:36.428Z,17.80
2023-03-26T10:09:36.421Z,18.40
2023-03-26T10:10:36.414Z,15.60
2023-03-26T10:11:36.435Z,17.80
2023-03-26T10:12:36.402Z,14.50
2023-03-26T10:13:36.383Z,13.50
2023-03-26T10:14:36.416Z,17.40
2023-03-26T10:15:36.373Z,23.40
2023-03-26T10:16:36.400Z,16.70
2023-03-26T10:17:36.976Z,19.10
2023-03-26T10:18:36.344Z,17.10
2023-03-26T10:19:36.403Z,17.80
2023-03-26T10:20:36.313Z,21.50
2023-03-26T10:21:36.355Z,18.40
2023-03-26T10:22:36.291Z,15.60
2023-03-26T10:23:36.819Z,11.60
2023-03-26T10:24:36.913Z,22.70
2023-03-26T10:25:36.287Z,16.20
2023-03-26T10:26:36.292Z,14.40
2023-03-26T10:27:36.308Z,16.90
2023-03-26T10:28:36.304Z,19.40
2023-03-26T10:29:36.264Z,18.90
2023-03-26T10:30:36.348Z,16.50
2023-03-26T10:31:36.234Z,15.20
2023-03-26T10:32:37.063Z,18.50
2023-03-26T10:33:36.291Z,17.60
2023-03-26T10:34:36.233Z,21.40
2023-03-26T10:35:36.246Z,14.10
2023-03-26T10:36:36.196Z,14.50
2023-03-26T10:37:36.212Z,19.00
2023-03-26T10:38:36.265Z,15.90
2023-03-26T10:39:38.405Z,18.50
2023-03-26T10:40:36.254Z,15.80
2023-03-26T10:41:36.127Z,23.90
2023-03-26T10:42:36.226Z,19.30
2023-03-26T10:43:36.182Z,13.70
2023-03-26T10:44:36.117Z,18.60
2023-03-26T10:45:36.147Z,18.50
2023-03-26T10:46:36.245Z,20.30
2023-03-26T10:47:36.157Z,17.70
2023-03-26T10:48:36.134Z,17.20
2023-03-26T10:49:37.529Z,14.60
2023-03-26T10:50:36.096Z,15.20
2023-03-26T10:51:36.102Z,15.40
2023-03-26T10:52:36.112Z,13.30
2023-03-26T10:53:36.120Z,18.50
2023-03-26T10:54:36.105Z,17.50
2023-03-26T10:55:36.075Z,18.40
2023-03-26T10:56:36.141Z,21.10
2023-03-26T10:57:36.076Z,15.00
2023-03-26T10:58:48.319Z,13.70
2023-03-26T10:59:37.074Z,15.60
2023-03-26T11:00:36.141Z,15.20
2023-03-26T11:01:36.067Z,7.50
2023-03-26T11:02:36.104Z,9.40
2023-03-26T11:03:36.985Z,6.50
2023-03-26T11:04:36.970Z,14.30
2023-03-26T11:05:36.106Z,9.40
2023-03-26T11:06:36.017Z,13.20
2023-03-26T11:07:36.918Z,4.60
2023-03-26T11:08:36.035Z,5.70
2023-03-26T11:09:35.950Z,6.00
2023-03-26T11:10:35.970Z,4.20
2023-03-26T11:11:35.964Z,5.00
2023-03-26T11:12:36.008Z,5.60
2023-03-26T11:13:35.992Z,4.70
2023-03-26T11:14:35.982Z,6.60
2023-03-26T11:15:35.904Z,6.00
2023-03-26T11:16:35.943Z,6.70
2023-03-26T11:17:40.393Z,6.00
2023-03-26T11:18:37.519Z,7.00
2023-03-26T11:19:35.874Z,6.50
2023-03-26T11:20:35.874Z,7.40
2023-03-26T11:21:35.901Z,9.40
2023-03-26T11:22:35.865Z,11.40
2023-03-26T11:23:35.906Z,9.80
2023-03-26T11:24:35.828Z,9.00
2023-03-26T11:25:35.830Z,8.50
2023-03-26T11:26:37.598Z,11.10
2023-03-26T11:27:35.900Z,6.80
2023-03-26T11:28:35.924Z,6.10
2023-03-26T11:29:35.843Z,8.30
2023-03-26T11:30:36.793Z,7.30
2023-03-26T11:31:35.832Z,5.80
2023-03-26T11:32:35.833Z,8.40
2023-03-26T11:33:35.975Z,6.50
2023-03-26T11:34:35.764Z,7.30
2023-03-26T11:35:40.562Z,7.10
2023-03-26T11:36:36.795Z,7.10
2023-03-26T11:37:37.233Z,11.30
2023-03-26T11:38:35.796Z,7.90
2023-03-26T11:39:36.321Z,9.30
2023-03-26T11:40:35.722Z,8.10
2023-03-26T11:41:35.744Z,8.00
2023-03-26T11:42:35.768Z,5.70
2023-03-26T11:43:35.704Z,7.10
2023-03-26T11:44:35.774Z,9.10
2023-03-26T11:45:36.490Z,9.40
2023-03-26T11:46:35.720Z,9.40
2023-03-26T11:47:35.784Z,7.80
2023-03-26T11:48:37.037Z,8.70
2023-03-26T11:49:35.803Z,8.50
2023-03-26T11:50:35.664Z,12.70
2023-03-26T11:51:35.706Z,11.60
2023-03-26T11:52:35.644Z,10.10
2023-03-26T11:53:35.657Z,10.80
2023-03-26T11:54:35.737Z,11.80
2023-03-26T11:55:35.610Z,9.50
2023-03-26T11:56:35.707Z,10.10
2023-03-26T11:57:35.695Z,10.00
2023-03-26T11:58:35.715Z,8.00
2023-03-26T11:59:45.249Z,7.80
2023-03-26T12:00:37.589Z,8.40
2023-03-26T12:01:35.586Z,9.10
2023-03-26T12:02:35.745Z,7.40
2023-03-26T12:03:35.641Z,9.40
2023-03-26T12:04:35.666Z,6.50
2023-03-26T12:05:35.552Z,6.50
2023-03-26T12:06:35.577Z,7.50
2023-03-26T12:07:35.578Z,6.50
2023-03-26T12:08:35.561Z,10.00
2023-03-26T12:09:35.507Z,6.10
2023-03-26T12:10:35.508Z,4.30
2023-03-26T12:11:35.762Z,6.30
2023-03-26T12:12:35.592Z,10.30
2023-03-26T12:13:35.466Z,10.70
2023-03-26T12:14:35.590Z,19.40
2023-03-26T12:15:35.468Z,16.50
2023-03-26T12:16:35.480Z,11.50
2023-03-26T12:17:35.459Z,9.50
2023-03-26T12:18:35.486Z,8.50
2023-03-26T12:19:36.925Z,8.10
2023-03-26T12:20:35.806Z,31.10
2023-03-26T12:21:36.696Z,13.10
2023-03-26T12:22:35.579Z,8.70
2023-03-26T12:23:35.416Z,6.60
2023-03-26T12:24:35.775Z,12.10
2023-03-26T12:25:35.984Z,10.00
2023-03-26T12:26:36.022Z,13.80
2023-03-26T12:27:36.829Z,11.10
2023-03-26T12:28:36.485Z,7.60
2023-03-26T12:29:36.015Z,7.20
2023-03-26T12:30:35.711Z,7.80
2023-03-26T12:31:35.555Z,11.80
2023-03-26T12:32:43.363Z,11.50
2023-03-26T12:33:37.903Z,11.40
2023-03-26T12:34:35.717Z,16.40
2023-03-26T12:35:35.987Z,12.50
2023-03-26T12:36:36.107Z,9.60
2023-03-26T12:37:35.621Z,10.30
2023-03-26T12:38:35.299Z,7.20
2023-03-26T12:40:09.079Z,7.20
2023-03-26T12:40:37.073Z,11.60
2023-03-26T12:44:42.609Z,4.90
2023-03-26T12:44:46.781Z,9.90
2023-03-26T12:44:47.905Z,6.10
2023-03-26T12:44:55.266Z,11.10
2023-03-26T12:45:37.111Z,10.10
2023-03-26T12:47:55.561Z,10.70
2023-03-26T12:48:00.391Z,9.00
2023-03-26T12:48:36.801Z,9.60
2023-03-26T12:49:35.451Z,12.20
2023-03-26T12:50:35.870Z,10.00
2023-03-26T12:51:35.369Z,7.80
2023-03-26T12:52:35.274Z,9.30
2023-03-26T12:53:35.135Z,6.40
2023-03-26T12:54:35.567Z,8.40
2023-03-26T12:55:35.955Z,8.30
2023-03-26T12:56:35.179Z,8.60
2023-03-26T12:57:35.201Z,6.30
2023-03-26T12:58:35.193Z,6.60
2023-03-26T12:59:35.756Z,7.70
2023-03-26T13:00:35.113Z,7.50
2023-03-26T13:01:35.219Z,6.90
2023-03-26T13:02:35.181Z,5.70
2023-03-26T13:03:36.009Z,6.80
2023-03-26T13:04:35.088Z,7.70
2023-03-26T13:05:35.050Z,4.70
2023-03-26T13:06:59.615Z,3.40
2023-03-26T13:07:36.073Z,4.30
2023-03-26T13:08:35.044Z,5.90
2023-03-26T13:09:35.058Z,6.30
2023-03-26T13:10:35.022Z,4.30
2023-03-26T13:11:35.043Z,4.60
2023-03-26T13:12:35.030Z,4.80
2023-03-26T13:13:35.024Z,7.40
2023-03-26T13:14:35.044Z,7.50